createdAt,value
2023-04-01T00:01:53.021Z,68.25
2023-04-01T00:13:55.646Z,66.57
2023-04-01T00:26:04.637Z,67.75
2023-04-01T00:37:59.489Z,63.82
2023-04-01T00:58:10.367Z,64.74
2023-04-01T01:03:14.482Z,65.12
2023-04-01T01:23:09.858Z,63.54
2023-04-01T01:28:27.337Z,63.82
2023-04-01T01:33:54.982Z,61.94
2023-04-01T01:39:00.598Z,63.11
2023-04-01T01:52:41.040Z,65.16
2023-04-01T02:05:26.287Z,66.98
2023-04-01T02:10:38.160Z,67.46
2023-04-01T02:37:06.162Z,68.89
2023-04-01T02:42:11.855Z,69.33
2023-04-01T02:51:41.548Z,67.57
2023-04-01T03:03:48.787Z,60.19
2023-04-01T03:08:52.601Z,61.27
2023-04-01T03:21:43.589Z,56.76
2023-04-01T03:26:47.250Z,59.37
2023-04-01T03:31:51.284Z,66.16
2023-04-01T03:59:55.489Z,61.35
2023-04-01T04:04:59.331Z,62.59
2023-04-01T04:10:03.781Z,62.75
2023-04-01T04:40:25.809Z,61.18
2023-04-01T04:46:12.088Z,60.31
2023-04-01T05:01:49.071Z,63.85
2023-04-01T05:06:53.224Z,61.48
2023-04-01T05:12:18.943Z,61.95
2023-04-01T05:25:10.414Z,63.07
2023-04-01T05:30:25.288Z,63.27
2023-04-01T05:35:33.044Z,63.03
2023-04-01T05:40:39.796Z,63.25
2023-04-01T05:46:09.142Z,62.05
2023-04-01T05:51:23.268Z,61.92
2023-04-01T05:56:32.536Z,60.11
2023-04-01T06:02:29.442Z,57.58
2023-04-01T06:08:11.597Z,59.92
2023-04-01T06:14:09.716Z,66.16
2023-04-01T06:20:16.556Z,66.53
2023-04-01T06:25:33.547Z,66.25
2023-04-01T06:31:42.860Z,66.72
2023-04-01T06:37:07.677Z,67.02
2023-04-01T06:42:42.246Z,67.31
2023-04-01T06:48:07.644Z,67.33
2023-04-01T06:53:37.584Z,67.61
2023-04-01T06:59:14.716Z,67.46
2023-04-01T07:04:25.245Z,67.36
2023-04-01T07:09:49.885Z,67.26
2023-04-01T07:14:57.554Z,67.26
2023-04-01T07:20:18.862Z,67.46
2023-04-01T07:25:27.582Z,67.68
2023-04-01T07:30:54.199Z,67.80
2023-04-01T07:36:15.604Z,67.72
2023-04-01T07:41:36.028Z,67.70
2023-04-01T07:47:21.553Z,67.60
2023-04-01T07:52:35.972Z,67.15
2023-04-01T07:58:40.432Z,67.46
2023-04-01T08:18:23.992Z,67.81
2023-04-01T08:23:57.710Z,67.94
2023-04-01T08:37:30.814Z,67.51
2023-04-01T08:53:38.167Z,67.14
2023-04-01T08:59:12.967Z,67.22
2023-04-01T09:04:55.066Z,66.95
2023-04-01T09:10:26.229Z,66.35
2023-04-01T09:30:47.675Z,65.69
2023-04-01T09:37:12.157Z,64.55
2023-04-01T09:43:37.413Z,64.99
2023-04-01T09:49:35.007Z,65.35
2023-04-01T09:55:01.463Z,65.98
2023-04-01T10:01:02.778Z,66.23
2023-04-01T10:06:29.527Z,66.25
2023-04-01T10:12:16.019Z,66.21
2023-04-01T10:18:06.837Z,65.75
2023-04-01T10:24:11.732Z,65.30
2023-04-01T10:29:47.085Z,64.66
2023-04-01T10:43:06.311Z,64.56
2023-04-01T10:49:10.986Z,64.56
2023-04-01T10:55:00.879Z,64.29
2023-04-01T11:00:46.004Z,64.73
2023-04-01T11:06:30.348Z,65.34
2023-04-01T11:12:00.706Z,65.24
2023-04-01T11:17:32.518Z,65.44
2023-04-01T11:23:23.324Z,65.08
2023-04-01T11:28:35.325Z,64.55
2023-04-01T11:34:19.600Z,64.72
2023-04-01T11:39:52.119Z,64.63
2023-04-01T11:45:19.426Z,64.58
2023-04-01T11:51:04.678Z,64.45
2023-04-01T11:56:52.753Z,64.63
2023-04-01T12:02:26.210Z,65.07
2023-04-01T12:08:06.184Z,65.30
2023-04-01T12:14:01.280Z,65.35
2023-04-01T12:19:25.228Z,65.12
2023-04-01T12:25:16.327Z,64.55
2023-04-01T12:30:46.231Z,62.67
2023-04-01T12:36:42.125Z,62.40
2023-04-01T12:42:22.156Z,62.48
2023-04-01T12:48:15.345Z,62.31
2023-04-01T12:54:14.223Z,62.65
2023-04-01T12:59:59.762Z,62.87
2023-04-01T13:05:26.611Z,63.57
2023-04-01T13:11:04.805Z,63.66
2023-04-01T13:16:40.751Z,63.66
2023-04-01T13:22:11.887Z,64.31
2023-04-01T13:27:42.036Z,65.00
2023-04-01T13:33:28.720Z,61.81
2023-04-01T13:38:55.100Z,59.77
2023-04-01T13:44:11.343Z,63.73
2023-04-01T13:49:58.485Z,60.60
2023-04-01T13:55:24.163Z,62.41
2023-04-01T14:01:09.297Z,63.99
2023-04-01T14:06:47.575Z,64.75
2023-04-01T14:12:30.183Z,60.87
2023-04-01T14:17:58.206Z,61.59
2023-04-01T14:23:36.926Z,62.52
2023-04-01T14:29:11.628Z,58.88
2023-04-01T14:35:07.939Z,63.13
2023-04-01T14:41:07.571Z,61.05
2023-04-01T14:47:04.564Z,62.67
2023-04-01T14:52:33.272Z,63.86
2023-04-01T14:57:36.884Z,59.11
2023-04-01T15:03:40.268Z,64.77
2023-04-01T15:17:46.799Z,65.10
2023-04-01T15:23:48.187Z,62.25
2023-04-01T15:29:39.372Z,58.81
2023-04-01T15:35:40.158Z,63.53
2023-04-01T15:41:07.721Z,61.77
2023-04-01T15:46:42.612Z,61.71
2023-04-01T15:52:30.229Z,58.75
2023-04-01T15:58:22.189Z,62.70
2023-04-01T16:03:48.053Z,63.51
2023-04-01T16:09:15.924Z,60.87
2023-04-01T16:14:48.593Z,61.48
2023-04-01T16:20:41.141Z,58.44
2023-04-01T16:26:14.502Z,63.68
2023-04-01T16:31:26.652Z,61.17
2023-04-01T16:43:49.965Z,64.48
2023-04-01T16:49:43.591Z,60.59
2023-04-01T16:55:10.313Z,65.66
2023-04-01T17:00:39.644Z,62.08
2023-04-01T17:05:56.986Z,60.19
2023-04-01T17:11:24.063Z,58.46
2023-04-01T17:16:49.376Z,63.08
2023-04-01T17:23:18.586Z,59.97
2023-04-01T17:28:54.890Z,58.84
2023-04-01T17:34:04.720Z,65.55
2023-04-01T17:39:32.086Z,61.38
2023-04-01T17:45:21.888Z,57.09
2023-04-01T17:50:48.984Z,63.92
2023-04-01T17:56:16.141Z,61.82
2023-04-01T18:01:41.672Z,58.60
2023-04-01T18:07:11.851Z,61.14
2023-04-01T18:13:04.245Z,62.58
2023-04-01T18:18:33.496Z,60.79
2023-04-01T18:33:56.325Z,61.48
2023-04-01T18:49:22.530Z,59.34
2023-04-01T18:55:29.978Z,64.83
2023-04-01T19:00:54.690Z,61.70
2023-04-01T19:06:10.258Z,59.30
2023-04-01T19:11:33.052Z,58.44
2023-04-01T19:17:09.416Z,63.79
2023-04-01T19:22:56.258Z,62.39
2023-04-01T19:28:42.194Z,57.77
2023-04-01T19:48:39.829Z,56.50
2023-04-01T19:54:04.853Z,60.34
2023-04-01T19:59:31.734Z,66.89
2023-04-01T20:04:43.838Z,62.64
2023-04-01T20:10:05.003Z,63.22
2023-04-01T20:15:35.557Z,59.52
2023-04-01T20:20:41.429Z,61.05
2023-04-01T20:25:54.270Z,63.34
2023-04-01T20:31:15.105Z,61.03
2023-04-01T20:36:57.045Z,58.68
2023-04-01T20:42:50.124Z,64.19
2023-04-01T20:48:37.774Z,64.54
2023-04-01T20:54:06.976Z,64.61
2023-04-01T20:59:29.501Z,64.25
2023-04-01T21:05:43.100Z,64.41
2023-04-01T21:10:58.439Z,64.62
2023-04-01T21:16:56.705Z,65.38
2023-04-01T21:22:31.417Z,65.55
2023-04-01T21:27:37.851Z,66.16
2023-04-01T21:33:16.810Z,66.68
2023-04-01T21:39:06.486Z,66.88
2023-04-01T21:44:42.657Z,67.17
2023-04-01T21:50:31.009Z,66.44
2023-04-01T22:31:05.165Z,65.56
2023-04-01T22:40:40.087Z,65.70
2023-04-01T22:46:24.918Z,65.54
2023-04-01T23:06:49.735Z,65.09
2023-04-01T23:12:22.196Z,65.38
2023-04-01T23:18:09.721Z,65.52
2023-04-01T23:23:33.525Z,65.42
2023-04-01T23:50:27.083Z,64.16
2023-04-01T23:55:36.123Z,63.84
